Time;durP1;ratioP1;P1;durP2;ratioP2;P2;SDS_P1;SDS_P2;PMS_P1;PMS_P2;Temp;Humidity;BMP_temperature;BMP_pressure;BME280_temperature;BME280_humidity;BME280_pressure;Samples;Min_cycle;Max_cycle;Signal;HPM_P1;HPM_P2
2021/11/27 00:02:07;;;;;;;21.40;14.80;;;;;;;1.70;84.14;98050.12;88770;1275;81695;-61
2021/11/27 00:04:17;;;;;;;22.40;15.30;;;;;;;1.69;84.14;98043.31;88749;1276;99078;-59
2021/11/27 00:06:28;;;;;;;23.50;15.90;;;;;;;1.71;84.12;98042.75;88750;1275;89744;-60
2021/11/27 00:08:42;;;;;;;23.30;14.90;;;;;;;1.72;84.04;98038.31;88602;1280;94732;-61
2021/11/27 00:10:54;;;;;;;20.90;14.20;;;;;;;1.72;83.82;98038.50;88687;1278;79480;-60
2021/11/27 00:13:06;;;;;;;22.70;14.50;;;;;;;1.71;83.91;98034.39;88695;1275;81078;-60
2021/11/27 00:15:20;;;;;;;19.90;13.90;;;;;;;1.65;83.95;98033.65;88683;1275;97696;-60
2021/11/27 00:17:32;;;;;;;22.30;14.60;;;;;;;1.63;83.94;98032.00;88830;1276;87636;-60
2021/11/27 00:19:46;;;;;;;21.00;13.60;;;;;;;1.64;84.04;98031.08;88747;1277;94916;-61
2021/11/27 00:22:00;;;;;;;22.10;13.70;;;;;;;1.65;84.19;98032.67;88791;1275;78387;-58
2021/11/27 00:24:14;;;;;;;21.90;14.00;;;;;;;1.69;84.06;98029.52;88798;1277;80921;-60
2021/11/27 00:26:32;;;;;;;23.30;14.70;;;;;;;1.69;84.23;98024.56;88591;1276;98156;-59
2021/11/27 00:28:47;;;;;;;21.20;14.50;;;;;;;1.67;84.22;98023.36;88663;1275;88176;-61
2021/11/27 00:31:05;;;;;;;21.80;14.00;;;;;;;1.67;84.22;98022.30;88753;1275;93727;-59
2021/11/27 00:33:18;;;;;;;22.80;15.60;;;;;;;1.68;84.15;98020.01;88816;1276;79766;-59
2021/11/27 00:35:29;;;;;;;17.90;13.00;;;;;;;1.63;84.14;98014.84;88838;1275;81094;-59
2021/11/27 00:37:39;;;;;;;22.10;14.50;;;;;;;1.57;84.20;98013.64;88779;1275;99192;-60
2021/11/27 00:39:49;;;;;;;21.60;14.60;;;;;;;1.54;84.15;98015.26;88816;1276;88349;-59
2021/11/27 00:42:02;;;;;;;19.70;13.80;;;;;;;1.53;84.13;98009.91;88754;1278;95552;-58
2021/11/27 00:44:16;;;;;;;22.60;13.50;;;;;;;1.55;84.12;98005.15;88797;1278;79840;-60
2021/11/27 00:46:26;;;;;;;21.10;12.60;;;;;;;1.59;84.16;97999.70;88815;1275;83275;-60
2021/11/27 00:48:36;;;;;;;18.50;12.40;;;;;;;1.58;84.04;97996.94;88822;1276;98424;-59
2021/11/27 00:50:52;;;;;;;17.00;11.30;;;;;;;1.58;84.27;97994.86;88820;1277;88957;-60
2021/11/27 00:53:07;;;;;;;16.60;12.20;;;;;;;1.56;84.39;97987.28;88777;1277;96214;-60
2021/11/27 00:55:21;;;;;;;16.70;11.30;;;;;;;1.58;84.46;97985.33;88804;1273;77900;-60
2021/11/27 00:57:32;;;;;;;15.20;10.20;;;;;;;1.61;84.41;97979.30;88758;1275;81766;-60
2021/11/27 00:59:45;;;;;;;16.00;11.40;;;;;;;1.61;84.61;97977.66;88641;1275;99064;-61
2021/11/27 01:01:56;;;;;;;16.70;11.70;;;;;;;1.59;84.45;97976.62;88766;1275;89429;-61
2021/11/27 01:04:07;;;;;;;16.50;11.60;;;;;;;1.59;84.38;97971.59;88641;1275;95210;-59
2021/11/27 01:06:20;;;;;;;16.10;11.00;;;;;;;1.55;84.38;97966.39;88756;1278;80531;-60
2021/11/27 01:08:34;;;;;;;17.30;11.60;;;;;;;1.54;84.28;97965.20;88652;1278;82679;-61
2021/11/27 01:10:47;;;;;;;;;;;;;;;1.53;84.28;97960.90;88760;1278;96578;-58
2021/11/27 01:13:00;;;;;;;15.50;10.60;;;;;;;1.52;84.31;97957.15;88615;1277;88976;-60
2021/11/27 01:15:12;;;;;;;14.80;11.10;;;;;;;1.52;84.34;97948.27;88744;1278;95102;-61
2021/11/27 01:17:21;;;;;;;15.10;10.40;;;;;;;1.53;84.38;97945.91;88712;1275;79402;-60
2021/11/27 01:19:32;;;;;;;14.70;10.00;;;;;;;1.55;84.38;97940.45;88653;1278;84613;-59
2021/11/27 01:21:46;;;;;;;15.80;10.90;;;;;;;1.55;84.41;97937.13;88822;1276;97757;-61
2021/11/27 01:23:58;;;;;;;13.00;9.30;;;;;;;1.56;84.42;97935.87;88752;1276;88748;-61
2021/11/27 01:26:08;;;;;;;15.10;9.90;;;;;;;1.57;84.49;97932.42;88661;1278;95813;-60
2021/11/27 01:28:20;;;;;;;15.10;10.50;;;;;;;1.60;84.43;97932.54;88797;1277;77700;-60
2021/11/27 01:30:32;;;;;;;10.70;8.30;;;;;;;1.55;84.38;97931.77;88822;1275;80445;-60
2021/11/27 01:32:42;;;;;;;13.40;9.70;;;;;;;1.54;84.46;97933.55;88751;1275;98078;-60
2021/11/27 01:34:52;;;;;;;15.00;10.10;;;;;;;1.47;84.41;97930.80;88789;1275;88653;-60
2021/11/27 01:37:02;;;;;;;16.00;10.50;;;;;;;1.44;84.45;97928.40;88658;1278;94948;-60
2021/11/27 01:39:12;;;;;;;14.60;10.30;;;;;;;1.41;84.52;97927.52;88718;1278;80492;-59
2021/11/27 01:41:24;;;;;;;14.10;9.50;;;;;;;1.37;84.68;97928.59;88816;1277;80420;-60
2021/11/27 01:43:37;;;;;;;13.40;9.60;;;;;;;1.40;84.65;97927.45;88732;1276;97840;-61
2021/11/27 01:45:49;;;;;;;13.00;9.70;;;;;;;1.40;84.49;97924.14;88727;1275;87667;-59
2021/11/27 01:48:03;;;;;;;15.00;9.90;;;;;;;1.40;84.52;97924.11;88747;1275;95805;-57
2021/11/27 01:50:14;;;;;;;12.30;9.40;;;;;;;1.41;84.46;97920.90;88771;1275;78719;-60
2021/11/27 01:52:23;;;;;;;13.50;9.80;;;;;;;1.43;84.61;97922.30;88910;1275;80150;-58
2021/11/27 01:54:34;;;;;;;13.70;9.40;;;;;;;1.47;84.68;97922.70;88789;1278;97918;-59
2021/11/27 01:56:48;;;;;;;13.10;9.30;;;;;;;1.51;84.71;97920.06;88639;1278;88548;-59
2021/11/27 01:58:59;;;;;;;14.30;9.90;;;;;;;1.52;84.71;97919.95;88805;1278;93207;-59
2021/11/27 02:01:15;;;;;;;13.30;9.60;;;;;;;1.50;84.76;97913.89;88764;1279;79020;-59
2021/11/27 02:03:24;;;;;;;12.60;9.30;;;;;;;1.51;84.71;97912.42;88773;1279;82070;-60
2021/11/27 02:05:35;;;;;;;13.00;8.90;;;;;;;1.49;84.79;97909.45;88767;1275;99311;-59
2021/11/27 02:07:45;;;;;;;12.00;8.50;;;;;;;1.51;84.63;97909.06;88782;1275;88733;-60
2021/11/27 02:09:55;;;;;;;12.50;8.90;;;;;;;1.51;84.40;97908.00;88778;1275;95834;-60
2021/11/27 02:12:10;;;;;;;13.80;8.00;;;;;;;1.50;84.54;97907.42;88792;1277;78931;-60
2021/11/27 02:14:20;;;;;;;12.10;8.80;;;;;;;1.51;84.64;97906.27;88787;1276;81595;-60
2021/11/27 02:16:33;;;;;;;11.40;8.50;;;;;;;1.48;84.66;97908.19;88801;1278;97966;-60
2021/11/27 02:18:45;;;;;;;12.20;8.50;;;;;;;1.47;84.81;97906.50;88693;1280;87634;-60
2021/11/27 02:21:03;;;;;;;11.10;7.50;;;;;;;1.52;84.85;97907.02;88663;1275;95060;-60
2021/11/27 02:23:13;;;;;;;10.60;7.90;;;;;;;1.56;84.69;97908.73;88723;1275;77575;-61
2021/11/27 02:25:27;;;;;;;11.80;8.10;;;;;;;1.60;84.57;97909.42;88779;1279;79983;-61
2021/11/27 02:27:37;;;;;;;12.50;9.00;;;;;;;1.56;84.64;97904.89;88618;1278;96842;-60
2021/11/27 02:29:48;;;;;;;11.10;8.60;;;;;;;1.55;84.53;97904.06;88651;1278;87131;-61
2021/11/27 02:32:04;;;;;;;12.90;8.70;;;;;;;1.53;84.66;97903.71;88778;1277;95867;-61
2021/11/27 02:34:17;;;;;;;11.50;8.50;;;;;;;1.53;84.59;97900.78;88825;1277;79136;-61
2021/11/27 02:36:29;;;;;;;12.50;8.00;;;;;;;1.48;84.70;97897.54;88768;1275;80690;-60
2021/11/27 02:38:41;;;;;;;12.60;8.00;;;;;;;1.44;84.58;97895.70;88745;1276;98006;-61
2021/11/27 02:40:51;;;;;;;11.50;8.90;;;;;;;1.41;84.55;97894.78;88802;1275;86870;-62
2021/11/27 02:43:00;;;;;;;12.00;8.60;;;;;;;1.39;84.47;97892.02;88781;1276;92074;-59
2021/11/27 02:45:11;;;;;;;12.00;8.40;;;;;;;1.37;84.46;97892.41;88641;1278;79880;-60
2021/11/27 02:47:21;;;;;;;12.30;8.10;;;;;;;1.34;84.47;97891.18;88723;1275;80611;-59
2021/11/27 02:49:30;;;;;;;14.00;9.30;;;;;;;1.38;84.71;97889.31;88787;1276;98670;-60
2021/11/27 02:51:43;;;;;;;14.40;9.60;;;;;;;1.44;84.76;97889.56;88841;1276;87859;-60
2021/11/27 02:53:52;;;;;;;11.80;8.70;;;;;;;1.49;84.62;97890.39;88775;1278;94902;-60
2021/11/27 02:56:06;;;;;;;14.30;9.70;;;;;;;1.51;84.71;97892.69;88758;1273;78894;-61
2021/11/27 02:58:16;;;;;;;15.10;10.60;;;;;;;1.52;84.75;97893.44;88733;1276;81005;-60
2021/11/27 03:00:27;;;;;;;16.30;10.70;;;;;;;1.49;84.80;97896.36;88796;1275;97697;-59
2021/11/27 03:02:44;;;;;;;16.90;10.40;;;;;;;1.44;84.78;97898.56;88781;1275;88360;-59
2021/11/27 03:04:54;;;;;;;17.00;10.50;;;;;;;1.40;84.77;97893.05;84655;1275;5316892;-57
2021/11/27 03:07:09;;;;;;;17.50;10.50;;;;;;;1.34;84.98;97891.66;88799;1276;80246;-59
2021/11/27 03:09:23;;;;;;;16.30;10.80;;;;;;;1.34;84.85;97888.46;88674;1275;98544;-59
2021/11/27 03:11:35;;;;;;;17.60;11.80;;;;;;;1.31;84.91;97885.24;88770;1275;88503;-59
2021/11/27 03:13:46;;;;;;;14.50;10.90;;;;;;;1.29;85.05;97884.61;88730;1275;95941;-61
2021/11/27 03:15:55;;;;;;;15.60;11.10;;;;;;;1.32;84.96;97883.91;88643;1275;79634;-59
2021/11/27 03:18:09;;;;;;;16.60;11.00;;;;;;;1.32;85.07;97883.98;88797;1279;82059;-60
2021/11/27 03:20:23;;;;;;;15.40;10.60;;;;;;;1.33;85.03;97882.28;88719;1279;97969;-58
2021/11/27 03:22:33;;;;;;;15.20;10.90;;;;;;;1.30;85.17;97879.77;88653;1275;87642;-60
2021/11/27 03:24:46;;;;;;;13.60;10.10;;;;;;;1.34;85.05;97882.34;88825;1279;94382;-61
2021/11/27 03:26:55;;;;;;;12.40;9.40;;;;;;;1.35;85.13;97882.91;88790;1275;77397;-60
2021/11/27 03:29:05;;;;;;;12.30;9.10;;;;;;;1.35;85.36;97883.39;88725;1278;81289;-59
2021/11/27 03:31:18;;;;;;;11.90;9.20;;;;;;;1.40;85.28;97887.04;88716;1275;98610;-59
2021/11/27 03:33:33;;;;;;;12.10;9.00;;;;;;;1.42;85.34;97887.63;88829;1277;88916;-60
2021/11/27 03:35:46;;;;;;;12.60;8.50;;;;;;;1.40;85.37;97884.35;88604;1278;95788;-59
2021/11/27 03:37:59;;;;;;;11.70;8.10;;;;;;;1.42;85.35;97881.62;88663;1274;79353;-59
2021/11/27 03:40:11;;;;;;;10.90;7.70;;;;;;;1.43;85.11;97878.14;88677;1278;81010;-59
2021/11/27 03:42:21;;;;;;;14.30;8.60;;;;;;;1.43;85.18;97874.46;88755;1275;98561;-60
2021/11/27 03:44:34;;;;;;;10.60;8.10;;;;;;;1.41;85.20;97877.88;88780;1275;89326;-60
2021/11/27 03:46:43;;;;;;;12.20;8.50;;;;;;;1.39;85.06;97878.64;88708;1278;93690;-60
2021/11/27 03:48:58;;;;;;;11.30;7.80;;;;;;;1.37;85.23;97882.73;88794;1277;77241;-60
2021/11/27 03:51:13;;;;;;;10.90;7.40;;;;;;;1.34;85.15;97881.39;88819;1273;82081;-59
2021/11/27 03:53:27;;;;;;;11.80;9.00;;;;;;;1.31;85.34;97886.30;88771;1273;98928;-59
2021/11/27 03:55:40;;;;;;;11.40;8.00;;;;;;;1.37;85.36;97890.12;88792;1273;87727;-60
2021/11/27 03:57:49;;;;;;;11.10;8.10;;;;;;;1.43;85.18;97895.40;88637;1278;94385;-61
2021/11/27 03:59:59;;;;;;;10.20;7.40;;;;;;;1.47;85.39;97902.45;88746;1278;80859;-61
2021/11/27 04:02:09;;;;;;;9.70;7.70;;;;;;;1.49;85.39;97901.15;88832;1277;81109;-59
2021/11/27 04:04:19;;;;;;;10.30;7.10;;;;;;;1.51;85.35;97902.84;88795;1276;98363;-60
2021/11/27 04:06:31;;;;;;;11.90;8.40;;;;;;;1.57;85.41;97903.63;88779;1277;88414;-59
2021/11/27 04:08:41;;;;;;;9.00;6.70;;;;;;;1.58;85.25;97904.64;88660;1278;94468;-60
2021/11/27 04:10:51;;;;;;;10.10;7.40;;;;;;;1.62;85.43;97906.89;88718;1276;78731;-60
2021/11/27 04:13:05;;;;;;;9.40;6.70;;;;;;;1.65;85.34;97908.32;88666;1279;83415;-59
2021/11/27 04:15:13;;;;;;;;;;;;;;;1.68;85.47;97909.06;88638;1279;97705;-59
2021/11/27 04:17:22;;;;;;;10.60;7.00;;;;;;;1.72;85.26;97906.92;88772;1276;88860;-61
2021/11/27 04:19:32;;;;;;;10.00;7.40;;;;;;;1.74;85.25;97913.16;88641;1278;95081;-60
2021/11/27 04:21:43;;;;;;;11.30;7.70;;;;;;;1.75;85.23;97916.04;88841;1276;77486;-56
2021/11/27 04:23:53;;;;;;;9.80;6.70;;;;;;;1.74;85.13;97916.39;88765;1279;80762;-58
2021/11/27 04:26:03;;;;;;;11.10;7.80;;;;;;;1.73;85.10;97916.88;88703;1280;100323;-58
2021/11/27 04:28:14;;;;;;;10.80;7.60;;;;;;;1.70;84.90;97916.73;88663;1278;88306;-59
2021/11/27 04:30:30;;;;;;;11.30;8.10;;;;;;;1.64;84.98;97915.22;88828;1279;92978;-59
2021/11/27 04:32:40;;;;;;;10.50;7.80;;;;;;;1.59;85.06;97919.19;88786;1278;79097;-59
2021/11/27 04:34:49;;;;;;;9.50;7.30;;;;;;;1.60;85.15;97921.92;88805;1278;82588;-59
2021/11/27 04:36:59;;;;;;;9.80;7.30;;;;;;;1.62;85.10;97922.66;88821;1279;97972;-61
2021/11/27 04:39:09;;;;;;;9.70;7.50;;;;;;;1.67;85.07;97924.55;88802;1275;88816;-60
2021/11/27 04:41:20;;;;;;;10.40;7.20;;;;;;;1.70;85.12;97930.57;88635;1279;93201;-60
2021/11/27 04:43:31;;;;;;;10.70;7.50;;;;;;;1.73;85.09;97934.13;88781;1276;77587;-60
2021/11/27 04:45:40;;;;;;;10.00;7.50;;;;;;;1.72;85.12;97934.77;88774;1275;82025;-58
2021/11/27 04:47:50;;;;;;;10.90;7.70;;;;;;;1.73;85.05;97939.23;88650;1279;98638;-59
2021/11/27 04:49:59;;;;;;;11.50;7.80;;;;;;;1.73;85.02;97940.66;88803;1278;88391;-60
2021/11/27 04:52:10;;;;;;;8.90;6.80;;;;;;;1.73;85.13;97941.93;88815;1276;95807;-59
2021/11/27 04:54:20;;;;;;;11.00;7.50;;;;;;;1.73;85.00;97941.65;88638;1278;79044;-60
2021/11/27 04:56:30;;;;;;;10.90;6.90;;;;;;;1.69;85.01;97943.20;88807;1278;79514;-60
2021/11/27 04:58:43;;;;;;;9.00;6.30;;;;;;;1.69;85.26;97944.36;88642;1278;99220;-61
2021/11/27 05:00:55;;;;;;;10.40;6.70;;;;;;;1.70;85.23;97946.00;88642;1275;88411;-59
2021/11/27 05:03:05;;;;;;;11.10;7.40;;;;;;;1.75;85.27;97950.34;88689;1280;93772;-60
2021/11/27 05:05:16;;;;;;;10.20;6.90;;;;;;;1.75;85.20;97948.20;88799;1276;78584;-59
2021/11/27 05:07:25;;;;;;;9.80;7.00;;;;;;;1.73;85.20;97952.45;88781;1278;81559;-58
2021/11/27 05:09:36;;;;;;;10.40;7.70;;;;;;;1.76;85.23;97952.98;88759;1276;96966;-59
2021/11/27 05:11:49;;;;;;;11.30;7.90;;;;;;;1.79;85.08;97954.39;88847;1276;88136;-58
2021/11/27 05:13:59;;;;;;;10.40;8.00;;;;;;;1.78;85.18;97951.35;88786;1277;95264;-59
2021/11/27 05:16:11;;;;;;;10.00;7.60;;;;;;;1.75;85.12;97950.79;88780;1275;76850;-59
2021/11/27 05:18:23;;;;;;;11.20;7.60;;;;;;;1.73;85.16;97950.25;88687;1279;81054;-59
2021/11/27 05:20:34;;;;;;;10.60;7.40;;;;;;;1.69;85.23;97951.73;88883;1276;97986;-59
2021/11/27 05:22:48;;;;;;;11.90;8.20;;;;;;;1.69;85.08;97955.49;88837;1276;88735;-61
2021/11/27 05:24:59;;;;;;;11.80;8.70;;;;;;;1.70;85.32;97958.40;88815;1272;94947;-61
2021/11/27 05:27:10;;;;;;;11.60;7.90;;;;;;;1.69;85.26;97958.73;88795;1276;79091;-58
2021/11/27 05:29:19;;;;;;;11.60;8.10;;;;;;;1.74;85.39;97958.11;88658;1280;81292;-59
2021/11/27 05:31:29;;;;;;;11.30;7.50;;;;;;;1.76;85.20;97956.24;88731;1279;98378;-59
2021/11/27 05:33:48;;;;;;;11.70;7.80;;;;;;;1.79;85.21;97957.66;88796;1277;89173;-59
2021/11/27 05:35:59;;;;;;;13.10;9.40;;;;;;;1.81;85.16;97957.92;88822;1276;96100;-60
2021/11/27 05:38:11;;;;;;;11.40;8.00;;;;;;;1.78;85.41;97958.30;88788;1276;79939;-61
2021/11/27 05:40:21;;;;;;;12.80;8.60;;;;;;;1.73;85.40;97957.81;88842;1278;82751;-61
2021/11/27 05:42:30;;;;;;;11.80;8.60;;;;;;;1.70;85.26;97962.87;88786;1276;97375;-60
2021/11/27 05:44:40;;;;;;;11.90;9.10;;;;;;;1.65;85.18;97967.04;88642;1279;87450;-58
2021/11/27 05:46:52;;;;;;;13.00;8.70;;;;;;;1.65;85.19;97972.52;88856;1276;94920;-60
2021/11/27 05:49:02;;;;;;;13.10;9.50;;;;;;;1.64;85.15;97978.17;88767;1278;78936;-59
2021/11/27 05:51:12;;;;;;;13.80;10.20;;;;;;;1.60;85.20;97980.07;88672;1274;80900;-58
2021/11/27 05:53:22;;;;;;;12.90;9.40;;;;;;;1.62;85.18;97985.03;88817;1279;98559;-58
2021/11/27 05:55:32;;;;;;;12.00;9.50;;;;;;;1.61;85.20;97991.14;88822;1278;87152;-59
2021/11/27 05:57:41;;;;;;;10.40;7.80;;;;;;;1.64;85.44;97992.75;88765;1279;94052;-60
2021/11/27 05:59:53;;;;;;;11.70;7.80;;;;;;;1.67;85.43;97994.33;88785;1276;80812;-60
2021/11/27 06:02:03;;;;;;;9.60;7.40;;;;;;;1.72;85.28;98001.90;88797;1276;82545;-60
2021/11/27 06:04:13;;;;;;;10.40;7.70;;;;;;;1.74;85.26;98000.86;88813;1276;98261;-59
2021/11/27 06:06:26;;;;;;;9.10;7.40;;;;;;;1.79;85.11;98003.08;88851;1276;89266;-60
2021/11/27 06:08:35;;;;;;;12.80;8.80;;;;;;;1.81;85.02;98002.35;88792;1273;95127;-60
2021/11/27 06:10:45;;;;;;;10.90;8.10;;;;;;;1.77;85.03;98003.92;88835;1277;76895;-60
2021/11/27 06:12:58;;;;;;;11.40;8.30;;;;;;;1.77;84.83;98002.16;88804;1277;80436;-59
2021/11/27 06:15:09;;;;;;;10.80;8.00;;;;;;;1.75;85.21;98010.98;88827;1277;98590;-60
2021/11/27 06:17:19;;;;;;;11.00;7.70;;;;;;;1.72;85.10;98018.69;88753;1276;87953;-60
2021/11/27 06:19:29;;;;;;;10.30;7.70;;;;;;;1.71;84.94;98032.73;88781;1276;95056;-59
2021/11/27 06:21:38;;;;;;;9.40;6.90;;;;;;;1.67;84.97;98036.82;88785;1276;79208;-59
2021/11/27 06:23:48;;;;;;;9.90;6.80;;;;;;;1.63;85.02;98042.48;88787;1277;83830;-59
2021/11/27 06:26:01;;;;;;;10.20;7.00;;;;;;;1.64;85.33;98042.20;88807;1276;99291;-59
2021/11/27 06:28:12;;;;;;;10.20;7.40;;;;;;;1.65;85.26;98048.59;88806;1278;87392;-59
2021/11/27 06:30:23;;;;;;;7.80;6.20;;;;;;;1.66;85.39;98053.43;88801;1277;95134;-59
2021/11/27 06:32:37;;;;;;;9.20;6.90;;;;;;;1.69;85.38;98057.52;88802;1276;78622;-59
2021/11/27 06:34:46;;;;;;;8.20;6.70;;;;;;;1.69;85.31;98058.76;88800;1278;83793;-60
2021/11/27 06:36:59;;;;;;;10.20;7.90;;;;;;;1.69;85.29;98067.75;88834;1273;99027;-60
2021/11/27 06:39:09;;;;;;;8.90;6.90;;;;;;;1.73;85.21;98071.64;88780;1273;89341;-59
2021/11/27 06:41:19;;;;;;;9.50;7.30;;;;;;;1.73;85.20;98074.95;88814;1275;94478;-60
2021/11/27 06:43:32;;;;;;;9.20;6.90;;;;;;;1.67;85.20;98079.08;88799;1275;80827;-59
2021/11/27 06:45:42;;;;;;;11.40;8.60;;;;;;;1.66;85.19;98080.95;88782;1277;82938;-58
2021/11/27 06:47:55;;;;;;;9.70;7.70;;;;;;;1.66;85.31;98080.55;88836;1276;97625;-60
2021/11/27 06:50:07;;;;;;;9.30;7.80;;;;;;;1.68;85.34;98084.24;88809;1275;88179;-60
2021/11/27 06:52:21;;;;;;;9.80;7.50;;;;;;;1.69;85.27;98089.65;88834;1276;95869;-60
2021/11/27 06:54:31;;;;;;;10.20;8.00;;;;;;;1.75;85.20;98093.73;88789;1275;77715;-60
2021/11/27 06:56:41;;;;;;;10.60;8.10;;;;;;;1.77;85.22;98101.08;88848;1273;82571;-60
2021/11/27 06:58:55;;;;;;;10.60;7.90;;;;;;;1.78;85.20;98104.49;88806;1272;95702;-59
2021/11/27 07:01:04;;;;;;;10.30;8.40;;;;;;;1.78;85.34;98107.19;88823;1275;89124;-60
2021/11/27 07:03:14;;;;;;;10.70;8.60;;;;;;;1.77;85.28;98110.91;88832;1273;94060;-59
2021/11/27 07:05:27;;;;;;;23.50;12.20;;;;;;;1.81;85.15;98118.31;88780;1276;77970;-59
2021/11/27 07:07:36;;;;;;;29.30;14.10;;;;;;;1.77;85.14;98122.54;88831;1276;81222;-59
2021/11/27 07:09:46;;;;;;;20.60;12.20;;;;;;;1.79;85.26;98127.63;88810;1273;99169;-59
2021/11/27 07:11:56;;;;;;;15.70;10.60;;;;;;;1.77;85.27;98136.14;88822;1275;86854;-61
2021/11/27 07:14:06;;;;;;;14.70;9.90;;;;;;;1.78;85.33;98132.99;88778;1273;94931;-60
2021/11/27 07:16:15;;;;;;;11.80;8.90;;;;;;;1.79;85.20;98134.84;88769;1278;78113;-59
2021/11/27 07:18:26;;;;;;;11.80;8.70;;;;;;;1.84;85.32;98136.08;88847;1274;79669;-59
2021/11/27 07:20:38;;;;;;;14.80;9.80;;;;;;;1.84;85.25;98146.03;88836;1276;98775;-59
2021/11/27 07:22:51;;;;;;;15.00;10.60;;;;;;;1.85;85.20;98148.92;88829;1275;87225;-60
2021/11/27 07:25:01;;;;;;;16.00;12.10;;;;;;;1.88;85.16;98154.74;88841;1273;93846;-59
2021/11/27 07:27:11;;;;;;;14.00;10.20;;;;;;;1.91;85.22;98155.64;88805;1276;77146;-60
2021/11/27 07:29:25;;;;;;;17.20;11.10;;;;;;;1.84;85.28;98158.98;88796;1273;82840;-60
2021/11/27 07:31:35;;;;;;;15.50;10.90;;;;;;;1.82;85.30;98164.10;88812;1276;98547;-60
2021/11/27 07:33:44;;;;;;;14.50;10.30;;;;;;;1.79;85.39;98168.58;88802;1274;89196;-60
2021/11/27 07:35:54;;;;;;;16.70;12.10;;;;;;;1.81;85.20;98170.20;88807;1273;95014;-60
2021/11/27 07:38:03;;;;;;;16.00;11.70;;;;;;;1.83;85.14;98170.79;88798;1274;78773;-60
2021/11/27 07:40:16;;;;;;;16.30;11.60;;;;;;;1.80;85.37;98174.95;88776;1274;81196;-60
2021/11/27 07:42:26;;;;;;;17.00;12.00;;;;;;;1.81;85.30;98172.91;88830;1273;97865;-61
2021/11/27 07:44:36;;;;;;;19.10;13.10;;;;;;;1.85;85.23;98172.48;88826;1275;86799;-60
2021/11/27 07:46:50;;;;;;;20.30;14.10;;;;;;;1.87;85.35;98178.80;88840;1274;95921;-59
2021/11/27 07:49:00;;;;;;;21.90;14.40;;;;;;;1.90;85.29;98181.80;88804;1276;77778;-60
2021/11/27 07:51:11;;;;;;;24.20;15.80;;;;;;;1.90;85.38;98186.59;88846;1273;80285;-60
2021/11/27 07:53:20;;;;;;;20.00;14.70;;;;;;;1.90;85.27;98186.09;88809;1273;97645;-59
2021/11/27 07:55:30;;;;;;;21.40;13.60;;;;;;;1.89;85.35;98192.59;88806;1276;87970;-60
2021/11/27 07:57:40;;;;;;;19.60;14.00;;;;;;;1.85;85.33;98194.84;88801;1273;94899;-60
2021/11/27 07:59:50;;;;;;;20.30;14.70;;;;;;;1.84;85.25;98198.55;88795;1275;78681;-59
2021/11/27 08:01:59;;;;;;;19.60;13.90;;;;;;;1.82;85.42;98197.89;88835;1273;79734;-60
2021/11/27 08:04:09;;;;;;;21.50;15.70;;;;;;;1.84;85.44;98196.34;88832;1276;97244;-60
2021/11/27 08:06:19;;;;;;;22.30;15.50;;;;;;;1.92;85.34;98193.81;88812;1275;87374;-58
2021/11/27 08:08:29;;;;;;;23.20;15.30;;;;;;;2.00;85.33;98194.93;88799;1273;93318;-60
2021/11/27 08:10:39;;;;;;;21.80;15.40;;;;;;;2.06;85.40;98199.83;88784;1273;78941;-59
2021/11/27 08:12:49;;;;;;;20.10;15.10;;;;;;;2.14;85.42;98203.30;88793;1276;80494;-60
2021/11/27 08:15:01;;;;;;;27.60;19.20;;;;;;;2.20;85.47;98202.88;88822;1275;99340;-59
2021/11/27 08:17:14;;;;;;;35.10;21.70;;;;;;;2.27;85.40;98196.84;88815;1276;88093;-60
2021/11/27 08:19:23;;;;;;;36.00;23.00;;;;;;;2.36;85.13;98197.12;88801;1273;93202;-60
2021/11/27 08:21:33;;;;;;;30.40;20.10;;;;;;;2.40;85.15;98198.77;88765;1275;77403;-59
2021/11/27 08:23:43;;;;;;;34.90;20.70;;;;;;;2.42;85.18;98195.38;88811;1275;82189;-60
2021/11/27 08:25:54;;;;;;;33.60;20.50;;;;;;;2.41;85.26;98199.46;88778;1273;99379;-59
2021/11/27 08:28:05;;;;;;;34.10;21.40;;;;;;;2.51;85.06;98204.96;88798;1275;87683;-59
2021/11/27 08:30:16;;;;;;;43.30;25.00;;;;;;;2.55;84.95;98206.92;88799;1273;93666;-60
2021/11/27 08:32:26;;;;;;;32.20;19.20;;;;;;;2.60;85.02;98213.59;88801;1276;81403;-59
2021/11/27 08:34:37;;;;;;;25.30;16.60;;;;;;;2.62;84.97;98218.16;88837;1275;83484;-60
2021/11/27 08:36:47;;;;;;;25.30;17.00;;;;;;;2.64;84.95;98215.05;88856;1276;97840;-61
2021/11/27 08:38:59;;;;;;;27.20;17.50;;;;;;;2.61;85.03;98215.14;88803;1273;88421;-62
2021/11/27 08:41:09;;;;;;;25.80;17.90;;;;;;;2.60;85.03;98216.85;88831;1273;94479;-60
2021/11/27 08:43:19;;;;;;;28.30;18.50;;;;;;;2.62;84.89;98225.06;88837;1273;80734;-59
2021/11/27 08:45:29;;;;;;;29.40;18.90;;;;;;;2.57;84.84;98225.36;88832;1274;80425;-60
2021/11/27 08:47:40;;;;;;;25.40;17.20;;;;;;;2.56;84.76;98230.80;88789;1273;98365;-59
2021/11/27 08:49:52;;;;;;;29.50;17.40;;;;;;;2.47;84.81;98229.56;88796;1273;89026;-61
2021/11/27 08:52:02;;;;;;;26.40;17.20;;;;;;;2.44;84.83;98229.46;88744;1278;93671;-61
2021/11/27 08:54:17;;;;;;;27.70;17.80;;;;;;;2.44;84.90;98231.67;88808;1275;80981;-60
2021/11/27 08:56:27;;;;;;;26.50;16.40;;;;;;;2.38;84.86;98237.04;88833;1276;80617;-56
2021/11/27 08:58:38;;;;;;;28.40;17.10;;;;;;;2.42;84.81;98237.31;88822;1275;97273;-59
2021/11/27 09:00:49;;;;;;;28.00;17.80;;;;;;;2.43;84.83;98239.83;88793;1273;86728;-57
2021/11/27 09:03:00;;;;;;;28.80;18.20;;;;;;;2.46;84.83;98243.37;88791;1276;94777;-57
2021/11/27 09:05:13;;;;;;;27.90;17.90;;;;;;;2.45;84.89;98245.94;88812;1275;78277;-58
2021/11/27 09:07:23;;;;;;;30.50;19.60;;;;;;;2.45;84.83;98246.27;88863;1275;79936;-57
2021/11/27 09:09:37;;;;;;;30.40;19.40;;;;;;;2.49;84.75;98247.71;88833;1274;99265;-61
2021/11/27 09:11:49;;;;;;;31.50;19.80;;;;;;;2.46;84.74;98253.38;88852;1276;89187;-62
2021/11/27 09:14:01;;;;;;;31.60;19.90;;;;;;;2.42;84.83;98254.84;88866;1273;93746;-62
2021/11/27 09:16:12;;;;;;;33.10;19.80;;;;;;;2.39;84.85;98251.41;88846;1275;79376;-61
2021/11/27 09:18:28;;;;;;;32.70;19.10;;;;;;;2.36;84.78;98253.77;88834;1274;79511;-61
2021/11/27 09:20:40;;;;;;;34.00;19.10;;;;;;;2.32;84.80;98260.01;88787;1273;96995;-60
2021/11/27 09:22:51;;;;;;;34.00;19.90;;;;;;;2.33;84.75;98263.70;88830;1275;87041;-59
2021/11/27 09:25:07;;;;;;;35.50;20.90;;;;;;;2.36;84.79;98266.56;88797;1276;92962;-61
2021/11/27 09:27:20;;;;;;;31.50;19.20;;;;;;;2.36;85.04;98267.26;88818;1276;79701;-59
2021/11/27 09:29:39;;;;;;;34.10;20.40;;;;;;;2.37;84.94;98267.35;88842;1273;80833;-60
2021/11/27 09:31:50;;;;;;;35.30;21.90;;;;;;;2.45;84.89;98271.91;88814;1276;97266;-61
2021/11/27 09:34:02;;;;;;;38.40;22.30;;;;;;;2.52;84.83;98276.81;88762;1274;89237;-61
2021/11/27 09:36:17;;;;;;;39.80;24.90;;;;;;;2.56;84.78;98283.73;88796;1274;95001;-58
2021/11/27 09:38:27;;;;;;;40.50;24.20;;;;;;;2.55;84.86;98285.11;88826;1273;77739;-60
2021/11/27 09:40:44;;;;;;;42.60;25.40;;;;;;;2.53;84.76;98285.46;88840;1274;80641;-57
2021/11/27 09:42:57;;;;;;;40.50;22.70;;;;;;;2.47;84.64;98285.98;88798;1273;97214;-59
2021/11/27 09:45:09;;;;;;;41.10;22.50;;;;;;;2.45;84.78;98286.45;88824;1273;87610;-60
2021/11/27 09:47:19;;;;;;;43.40;23.50;;;;;;;2.43;84.78;98290.61;88816;1275;95217;-58
2021/11/27 09:49:31;;;;;;;40.80;22.90;;;;;;;2.42;84.82;98289.77;88767;1275;81807;-59
2021/11/27 09:51:42;;;;;;;43.90;24.10;;;;;;;2.46;84.86;98293.06;88760;1273;82247;-59
2021/11/27 09:53:53;;;;;;;44.00;24.80;;;;;;;2.47;84.86;98290.82;88803;1273;99079;-58
2021/11/27 09:56:03;;;;;;;43.20;23.70;;;;;;;2.49;84.80;98294.48;88833;1273;86470;-60
2021/11/27 09:58:13;;;;;;;43.30;24.00;;;;;;;2.48;84.90;98294.52;88826;1274;93404;-59
2021/11/27 10:00:24;;;;;;;43.70;24.90;;;;;;;2.56;84.85;98290.90;88827;1276;77162;-60
2021/11/27 10:02:35;;;;;;;43.40;24.80;;;;;;;2.62;84.87;98294.20;88821;1276;80367;-59
2021/11/27 10:04:50;;;;;;;47.30;27.00;;;;;;;2.65;84.85;98294.80;88795;1273;99186;-61
2021/11/27 10:07:01;;;;;;;47.50;27.30;;;;;;;2.63;84.89;98295.66;88831;1276;87396;-58
2021/11/27 10:09:14;;;;;;;48.40;26.90;;;;;;;2.59;84.79;98294.29;88824;1273;95313;-60
2021/11/27 10:11:25;;;;;;;45.20;25.10;;;;;;;2.53;84.79;98297.10;88780;1273;79433;-58
2021/11/27 10:13:35;;;;;;;46.40;24.90;;;;;;;2.52;84.72;98304.48;88795;1273;81769;-60
2021/11/27 10:15:44;;;;;;;45.50;24.90;;;;;;;2.48;84.72;98307.34;88772;1273;97808;-59
2021/11/27 10:17:55;;;;;;;45.90;23.30;;;;;;;2.47;84.72;98307.67;88780;1275;89155;-58